Weather at Cancún International Airport

Public forecast

Using degrees Celsius for public forecast. Weather courtesy of forecast.io.

Current aviation weather report (METAR) for Cancún International Airport

Retrieved 2020/09/23 08:48 UTC (14 minutes ago):

MMUN 230848Z 00000KT 7SM SKC 24/24 A2986 RMK SLP113 57016 962

Aviation forecast (TAF) for Cancún International Airport

Retrieved 2020/09/23 06:06 UTC (3 hours ago):

TAF MMUN 230359Z 2306/2412 03005KT 6SM HZ SCT015 TX30/2318Z TN25/2312Z FM231200 03008KT 6SM HZ BKN015 BKN090 TEMPO 2312/2316 5SM TSRA BKN015CB FM231600 03010KT 6SM -RA BKN020CB OVC100 TEMPO 2318/2322 3SM TSRA OVC015CB FM240300 03005KT 6SM HZ SCT015 BKN090